sensor_id;sensor_type;location;lat;lon;timestamp;temperature;humidity
20162;DHT22;51382;53.180;15.414;2023-02-15T00:03:40;-0.70;99.90
20162;DHT22;51382;53.180;15.414;2023-02-15T00:18:52;-0.90;99.90
20162;DHT22;51382;53.180;15.414;2023-02-15T00:34:03;-0.90;99.90
20162;DHT22;51382;53.180;15.414;2023-02-15T00:49:16;-1.10;99.90
20162;DHT22;51382;53.180;15.414;2023-02-15T01:04:23;-1.20;99.90
20162;DHT22;51382;53.180;15.414;2023-02-15T01:19:34;-1.20;99.90
20162;DHT22;51382;53.180;15.414;2023-02-15T01:34:46;-1.20;99.90
20162;DHT22;51382;53.180;15.414;2023-02-15T01:50:00;-1.20;99.90
20162;DHT22;51382;53.180;15.414;2023-02-15T02:05:15;-1.30;99.90
20162;DHT22;51382;53.180;15.414;2023-02-15T02:20:37;-1.40;99.90
20162;DHT22;51382;53.180;15.414;2023-02-15T02:36:06;-1.40;99.90
20162;DHT22;51382;53.180;15.414;2023-02-15T02:51:24;-1.40;99.90
20162;DHT22;51382;53.180;15.414;2023-02-15T03:06:37;-1.50;99.90
20162;DHT22;51382;53.180;15.414;2023-02-15T03:21:54;-1.50;99.90
20162;DHT22;51382;53.180;15.414;2023-02-15T03:37:19;-1.70;99.90
20162;DHT22;51382;53.180;15.414;2023-02-15T03:52:36;-1.70;99.90
20162;DHT22;51382;53.180;15.414;2023-02-15T04:07:48;-1.70;99.90
20162;DHT22;51382;53.180;15.414;2023-02-15T04:22:59;-1.60;99.90
20162;DHT22;51382;53.180;15.414;2023-02-15T04:38:27;-1.70;99.90
20162;DHT22;51382;53.180;15.414;2023-02-15T04:53:38;-1.90;99.90
20162;DHT22;51382;53.180;15.414;2023-02-15T05:08:44;-1.90;99.90
20162;DHT22;51382;53.180;15.414;2023-02-15T05:23:56;-2.00;99.90
20162;DHT22;51382;53.180;15.414;2023-02-15T05:39:07;-2.00;99.90
20162;DHT22;51382;53.180;15.414;2023-02-15T05:54:18;-2.10;99.90
20162;DHT22;51382;53.180;15.414;2023-02-15T06:09:29;-2.10;99.90
20162;DHT22;51382;53.180;15.414;2023-02-15T06:24:36;-2.20;99.90
20162;DHT22;51382;53.180;15.414;2023-02-15T06:39:47;-2.20;99.90
20162;DHT22;51382;53.180;15.414;2023-02-15T06:54:58;-1.90;99.90
20162;DHT22;51382;53.180;15.414;2023-02-15T07:10:09;1.20;99.90
20162;DHT22;51382;53.180;15.414;2023-02-15T07:25:21;3.30;99.90
20162;DHT22;51382;53.180;15.414;2023-02-15T07:40:32;5.40;99.90
20162;DHT22;51382;53.180;15.414;2023-02-15T07:55:43;7.20;99.90
20162;DHT22;51382;53.180;15.414;2023-02-15T08:10:56;8.20;99.90
20162;DHT22;51382;53.180;15.414;2023-02-15T08:26:26;7.80;99.90
20162;DHT22;51382;53.180;15.414;2023-02-15T08:41:38;8.40;99.90
20162;DHT22;51382;53.180;15.414;2023-02-15T08:56:51;2.60;99.90
20162;DHT22;51382;53.180;15.414;2023-02-15T09:12:02;6.50;99.90
20162;DHT22;51382;53.180;15.414;2023-02-15T09:27:14;2.70;99.90
20162;DHT22;51382;53.180;15.414;2023-02-15T09:42:32;3.20;99.90
20162;DHT22;51382;53.180;15.414;2023-02-15T09:58:07;3.50;99.90
20162;DHT22;51382;53.180;15.414;2023-02-15T10:13:29;3.60;99.90
20162;DHT22;51382;53.180;15.414;2023-02-15T10:28:50;4.10;99.90
20162;DHT22;51382;53.180;15.414;2023-02-15T10:59:40;5.70;99.90
20162;DHT22;51382;53.180;15.414;2023-02-15T11:14:57;5.70;99.90
20162;DHT22;51382;53.180;15.414;2023-02-15T11:30:12;5.40;99.90
20162;DHT22;51382;53.180;15.414;2023-02-15T11:45:27;5.90;99.90
20162;DHT22;51382;53.180;15.414;2023-02-15T12:00:40;5.90;99.90
20162;DHT22;51382;53.180;15.414;2023-02-15T12:15:56;6.30;99.90
20162;DHT22;51382;53.180;15.414;2023-02-15T12:31:20;6.60;99.90
20162;DHT22;51382;53.180;15.414;2023-02-15T12:46:35;6.90;99.90
20162;DHT22;51382;53.180;15.414;2023-02-15T13:01:47;7.10;99.90
20162;DHT22;51382;53.180;15.414;2023-02-15T13:17:02;7.20;99.90
20162;DHT22;51382;53.180;15.414;2023-02-15T13:32:19;7.10;99.90
20162;DHT22;51382;53.180;15.414;2023-02-15T13:47:39;7.40;99.90
20162;DHT22;51382;53.180;15.414;2023-02-15T14:03:15;7.70;99.90
20162;DHT22;51382;53.180;15.414;2023-02-15T14:18:38;7.70;99.90
20162;DHT22;51382;53.180;15.414;2023-02-15T14:33:53;7.70;99.90
20162;DHT22;51382;53.180;15.414;2023-02-15T14:49:06;7.60;99.90
20162;DHT22;51382;53.180;15.414;2023-02-15T15:04:32;7.50;99.90
20162;DHT22;51382;53.180;15.414;2023-02-15T15:35:22;7.00;99.90
20162;DHT22;51382;53.180;15.414;2023-02-15T15:50:40;6.20;99.90
20162;DHT22;51382;53.180;15.414;2023-02-15T16:05:51;6.10;99.90
20162;DHT22;51382;53.180;15.414;2023-02-15T16:20:59;5.60;99.90
20162;DHT22;51382;53.180;15.414;2023-02-15T16:36:10;5.20;99.90
20162;DHT22;51382;53.180;15.414;2023-02-15T16:51:24;5.10;99.90
20162;DHT22;51382;53.180;15.414;2023-02-15T17:06:37;4.70;99.90
20162;DHT22;51382;53.180;15.414;2023-02-15T17:21:50;4.20;99.90
20162;DHT22;51382;53.180;15.414;2023-02-15T17:37:10;3.80;99.90
20162;DHT22;51382;53.180;15.414;2023-02-15T17:52:31;3.60;99.90
20162;DHT22;51382;53.180;15.414;2023-02-15T18:07:45;3.60;99.90
20162;DHT22;51382;53.180;15.414;2023-02-15T18:23:09;2.80;99.90
20162;DHT22;51382;53.180;15.414;2023-02-15T18:38:18;2.40;99.90
20162;DHT22;51382;53.180;15.414;2023-02-15T18:53:31;2.00;99.90
20162;DHT22;51382;53.180;15.414;2023-02-15T19:08:43;1.50;99.90
20162;DHT22;51382;53.180;15.414;2023-02-15T19:23:57;1.50;99.90
20162;DHT22;51382;53.180;15.414;2023-02-15T19:39:18;1.40;99.90
20162;DHT22;51382;53.180;15.414;2023-02-15T19:54:34;1.10;99.90
20162;DHT22;51382;53.180;15.414;2023-02-15T20:09:45;1.20;99.90
20162;DHT22;51382;53.180;15.414;2023-02-15T20:24:52;1.00;99.90
20162;DHT22;51382;53.180;15.414;2023-02-15T20:40:07;0.70;99.90
20162;DHT22;51382;53.180;15.414;2023-02-15T20:55:25;0.50;99.90
20162;DHT22;51382;53.180;15.414;2023-02-15T21:10:37;0.20;99.90
20162;DHT22;51382;53.180;15.414;2023-02-15T21:25:52;0.50;99.90
20162;DHT22;51382;53.180;15.414;2023-02-15T21:41:04;-0.30;99.90
20162;DHT22;51382;53.180;15.414;2023-02-15T21:56:33;-0.50;99.90
20162;DHT22;51382;53.180;15.414;2023-02-15T22:11:39;-0.50;99.90
20162;DHT22;51382;53.180;15.414;2023-02-15T22:26:51;-0.40;99.90
20162;DHT22;51382;53.180;15.414;2023-02-15T22:42:03;-0.60;99.90
20162;DHT22;51382;53.180;15.414;2023-02-15T22:57:27;-0.60;99.90
20162;DHT22;51382;53.180;15.414;2023-02-15T23:12:35;-0.60;99.90
20162;DHT22;51382;53.180;15.414;2023-02-15T23:28:13;-0.70;99.90
20162;DHT22;51382;53.180;15.414;2023-02-15T23:43:38;-0.50;99.90
20162;DHT22;51382;53.180;15.414;2023-02-15T23:58:51;-0.80;99.90
